createdAt,value
2023-03-02T00:00:03.211Z,2.30
2023-03-02T00:02:30.242Z,2.30
2023-03-02T00:04:59.032Z,2.30
2023-03-02T00:07:33.965Z,2.30
2023-03-02T00:10:01.010Z,2.30
2023-03-02T00:12:31.117Z,2.30
2023-03-02T00:14:57.975Z,2.20
2023-03-02T00:17:27.963Z,2.20
2023-03-02T00:20:10.299Z,2.20
2023-03-02T00:22:42.739Z,2.10
2023-03-02T00:25:10.826Z,2.20
2023-03-02T00:27:37.708Z,2.10
2023-03-02T00:30:05.356Z,2.10
2023-03-02T00:32:32.471Z,2.10
2023-03-02T00:34:59.312Z,2.10
2023-03-02T00:37:26.220Z,2.10
2023-03-02T00:39:53.711Z,2.10
2023-03-02T00:42:21.719Z,2.10
2023-03-02T00:44:48.605Z,2.00
2023-03-02T00:47:15.716Z,2.10
2023-03-02T00:49:42.642Z,2.10
2023-03-02T00:52:09.498Z,2.00
2023-03-02T00:54:36.341Z,2.00
2023-03-02T00:57:03.212Z,2.00
2023-03-02T00:59:30.027Z,2.00
2023-03-02T01:01:59.717Z,1.90
2023-03-02T01:04:31.403Z,1.90
2023-03-02T01:07:00.451Z,1.90
2023-03-02T01:09:27.441Z,1.80
2023-03-02T01:11:54.295Z,1.80
2023-03-02T01:14:21.436Z,1.80
2023-03-02T01:16:48.320Z,1.80
2023-03-02T01:19:15.742Z,1.80
2023-03-02T01:21:43.515Z,1.80
2023-03-02T01:24:11.186Z,1.70
2023-03-02T01:26:38.299Z,1.70
2023-03-02T01:29:05.464Z,1.70
2023-03-02T01:31:32.435Z,1.70
2023-03-02T01:33:59.371Z,1.60
2023-03-02T01:36:26.321Z,1.60
2023-03-02T01:38:54.273Z,1.70
2023-03-02T01:41:21.223Z,1.60
2023-03-02T01:43:48.521Z,1.60
2023-03-02T01:46:35.195Z,1.60
2023-03-02T01:49:06.126Z,1.50
2023-03-02T01:51:38.480Z,1.50
2023-03-02T01:54:17.263Z,1.50
2023-03-02T01:56:46.235Z,1.50
2023-03-02T01:59:16.702Z,1.40
2023-03-02T02:01:47.559Z,1.50
2023-03-02T02:04:14.954Z,1.40
2023-03-02T02:06:48.588Z,1.50
2023-03-02T02:09:19.622Z,1.40
2023-03-02T02:11:47.158Z,1.40
2023-03-02T02:14:14.402Z,1.40
2023-03-02T02:16:41.938Z,1.40
2023-03-02T02:19:35.827Z,1.30
2023-03-02T02:22:03.057Z,1.30
2023-03-02T02:24:46.289Z,1.30
2023-03-02T02:27:14.698Z,1.30
2023-03-02T02:29:47.121Z,1.30
2023-03-02T02:32:18.472Z,1.20
2023-03-02T02:34:58.785Z,1.20
2023-03-02T02:37:35.890Z,1.20
2023-03-02T02:40:09.103Z,1.10
2023-03-02T02:42:43.531Z,1.20
2023-03-02T02:45:27.485Z,1.10
2023-03-02T02:47:56.187Z,1.10
2023-03-02T02:50:31.005Z,1.10
2023-03-02T02:53:23.750Z,1.10
2023-03-02T02:55:53.439Z,1.10
2023-03-02T02:58:39.210Z,1.10
2023-03-02T03:01:06.472Z,1.00
2023-03-02T03:03:36.799Z,1.00
2023-03-02T03:06:08.324Z,1.00
2023-03-02T03:08:43.820Z,1.00
2023-03-02T03:11:16.306Z,1.00
2023-03-02T03:13:44.376Z,0.90
2023-03-02T03:16:15.571Z,0.90
2023-03-02T03:18:49.416Z,1.00
2023-03-02T03:21:18.326Z,0.90
2023-03-02T03:23:45.448Z,0.90
2023-03-02T03:26:12.398Z,0.90
2023-03-02T03:28:39.243Z,0.90
2023-03-02T03:31:06.170Z,0.90
2023-03-02T03:33:33.241Z,0.90
2023-03-02T03:36:00.780Z,0.90
2023-03-02T03:38:27.883Z,0.90
2023-03-02T03:40:54.741Z,0.90
2023-03-02T03:43:21.623Z,0.80
2023-03-02T03:45:48.564Z,0.80
2023-03-02T03:48:15.446Z,0.80
2023-03-02T03:50:42.317Z,0.80
2023-03-02T03:53:09.161Z,0.90
2023-03-02T03:55:36.027Z,0.90
2023-03-02T03:58:02.857Z,0.80
2023-03-02T04:00:30.012Z,0.90
2023-03-02T04:02:57.020Z,0.80
2023-03-02T04:05:24.158Z,0.80
2023-03-02T04:07:51.070Z,0.80
2023-03-02T04:10:18.044Z,0.80
2023-03-02T04:12:45.065Z,0.80
2023-03-02T04:15:15.685Z,0.80
2023-03-02T04:17:45.000Z,0.80
2023-03-02T04:20:16.950Z,0.80
2023-03-02T04:22:45.342Z,0.80
2023-03-02T04:25:14.160Z,0.80
2023-03-02T04:27:41.069Z,0.70
2023-03-02T04:30:08.709Z,0.70
2023-03-02T04:32:35.668Z,0.80
2023-03-02T04:35:02.615Z,0.70
2023-03-02T04:37:29.532Z,0.70
2023-03-02T04:39:56.654Z,0.70
2023-03-02T04:42:23.611Z,0.70
2023-03-02T04:44:50.521Z,0.70
2023-03-02T04:47:17.505Z,0.70
2023-03-02T04:49:44.463Z,0.70
2023-03-02T04:52:11.377Z,0.70
2023-03-02T04:54:38.404Z,0.60
2023-03-02T04:57:05.358Z,0.60
2023-03-02T04:59:32.241Z,0.70
2023-03-02T05:02:00.550Z,0.60
2023-03-02T05:04:29.308Z,0.60
2023-03-02T05:06:56.702Z,0.60
2023-03-02T05:09:27.449Z,0.50
2023-03-02T05:11:59.998Z,0.60
2023-03-02T05:14:27.722Z,0.60
2023-03-02T05:16:55.061Z,0.50
2023-03-02T05:19:21.954Z,0.50
2023-03-02T05:21:48.806Z,0.50
2023-03-02T05:24:15.809Z,0.40
2023-03-02T05:26:43.166Z,0.50
2023-03-02T05:29:10.404Z,0.50
2023-03-02T05:31:41.057Z,0.50
2023-03-02T05:34:11.835Z,0.50
2023-03-02T05:36:39.174Z,0.40
2023-03-02T05:39:06.740Z,0.40
2023-03-02T05:41:33.805Z,0.40
2023-03-02T05:44:02.040Z,0.50
2023-03-02T05:46:29.235Z,0.40
2023-03-02T05:48:56.189Z,0.50
2023-03-02T05:51:23.296Z,0.40
2023-03-02T05:53:50.559Z,0.50
2023-03-02T05:56:17.448Z,0.50
2023-03-02T05:58:44.357Z,0.40
2023-03-02T06:01:14.855Z,0.40
2023-03-02T06:03:43.365Z,0.40
2023-03-02T06:06:14.253Z,0.50
2023-03-02T06:08:43.960Z,0.50
2023-03-02T06:11:11.466Z,0.40
2023-03-02T06:13:39.268Z,0.40
2023-03-02T06:16:06.471Z,0.40
2023-03-02T06:18:33.843Z,0.40
2023-03-02T06:21:00.950Z,0.40
2023-03-02T06:23:28.063Z,0.40
2023-03-02T06:25:55.098Z,0.40
2023-03-02T06:28:22.118Z,0.40
2023-03-02T06:30:49.958Z,0.50
2023-03-02T06:33:21.458Z,0.50
2023-03-02T06:35:49.323Z,0.40
2023-03-02T06:38:16.395Z,0.50
2023-03-02T06:40:43.208Z,0.50
2023-03-02T06:43:10.163Z,0.50
2023-03-02T06:45:37.884Z,0.50
2023-03-02T06:48:05.092Z,0.60
2023-03-02T06:50:32.584Z,0.60
2023-03-02T06:52:59.795Z,0.60
2023-03-02T06:55:26.679Z,0.60
2023-03-02T06:57:54.226Z,0.60
2023-03-02T07:00:27.285Z,0.60
2023-03-02T07:02:55.831Z,0.60
2023-03-02T07:05:24.468Z,0.60
2023-03-02T07:07:51.897Z,0.70
2023-03-02T07:10:19.169Z,0.70
2023-03-02T07:12:46.040Z,0.80
2023-03-02T07:15:14.355Z,0.70
2023-03-02T07:17:43.458Z,0.80
2023-03-02T07:20:12.744Z,0.90
2023-03-02T07:22:40.460Z,0.80
2023-03-02T07:25:08.273Z,0.90
2023-03-02T07:27:35.620Z,1.00
2023-03-02T07:30:03.124Z,1.10
2023-03-02T07:32:30.157Z,1.10
2023-03-02T07:34:57.050Z,1.10
2023-03-02T07:37:24.029Z,1.10
2023-03-02T07:39:50.934Z,1.10
2023-03-02T07:42:18.033Z,1.20
2023-03-02T07:44:44.861Z,1.30
2023-03-02T07:47:11.902Z,1.30
2023-03-02T07:49:39.067Z,1.40
2023-03-02T07:52:06.496Z,1.50
2023-03-02T07:54:33.461Z,1.60
2023-03-02T07:57:00.285Z,1.70
2023-03-02T07:59:28.442Z,1.70
2023-03-02T08:01:56.738Z,1.80
2023-03-02T08:04:24.228Z,1.80
2023-03-02T08:06:51.562Z,1.90
2023-03-02T08:09:18.500Z,2.00
2023-03-02T08:11:46.161Z,1.90
2023-03-02T08:14:13.051Z,1.90
2023-03-02T08:16:40.856Z,2.00
2023-03-02T08:19:08.146Z,2.00
2023-03-02T08:21:35.307Z,2.30
2023-03-02T08:24:02.501Z,2.40
2023-03-02T08:26:29.374Z,2.40
2023-03-02T08:28:56.298Z,2.30
2023-03-02T08:31:23.403Z,2.40
2023-03-02T08:33:50.663Z,2.50
2023-03-02T08:36:19.476Z,2.60
2023-03-02T08:38:47.388Z,2.80
2023-03-02T08:41:17.269Z,2.80
2023-03-02T08:43:44.120Z,2.70
2023-03-02T08:46:12.765Z,2.60
2023-03-02T08:48:39.977Z,2.70
2023-03-02T08:51:09.556Z,2.70
2023-03-02T08:53:42.873Z,2.80
2023-03-02T08:56:29.658Z,2.80
2023-03-02T08:59:00.254Z,2.80
2023-03-02T09:01:30.096Z,3.00
2023-03-02T09:03:59.441Z,3.20
2023-03-02T09:06:31.046Z,3.10
2023-03-02T09:08:57.943Z,3.40
2023-03-02T09:11:25.369Z,3.40
2023-03-02T09:13:52.358Z,3.60
2023-03-02T09:16:20.367Z,3.60
2023-03-02T09:18:49.230Z,3.80
2023-03-02T09:21:16.424Z,4.00
2023-03-02T09:23:43.296Z,4.00
2023-03-02T09:26:10.519Z,4.10
2023-03-02T09:28:38.402Z,4.30
2023-03-02T09:31:08.112Z,4.60
2023-03-02T09:33:35.533Z,4.60
2023-03-02T09:36:09.640Z,4.40
2023-03-02T09:38:39.416Z,4.40
2023-03-02T09:41:12.025Z,4.40
2023-03-02T09:44:01.125Z,4.50
2023-03-02T09:46:44.620Z,4.40
2023-03-02T09:49:20.312Z,4.50
2023-03-02T09:52:08.312Z,5.00
2023-03-02T09:54:37.937Z,5.00
2023-03-02T09:57:21.279Z,5.10
2023-03-02T09:59:54.269Z,5.20
2023-03-02T10:02:27.192Z,4.90
2023-03-02T10:04:57.166Z,5.30
2023-03-02T10:07:32.448Z,5.40
2023-03-02T10:10:26.309Z,5.60
2023-03-02T10:13:19.102Z,5.80
2023-03-02T10:16:17.760Z,6.00
2023-03-02T10:18:55.052Z,5.80
2023-03-02T10:21:38.279Z,6.10
2023-03-02T10:24:32.095Z,6.20
2023-03-02T10:27:08.818Z,6.30
2023-03-02T10:30:01.091Z,6.40
2023-03-02T10:32:32.989Z,6.40
2023-03-02T10:35:02.718Z,6.50
2023-03-02T10:37:30.666Z,6.70
2023-03-02T10:39:57.701Z,6.50
2023-03-02T10:42:27.278Z,6.60
2023-03-02T10:45:23.366Z,6.80
2023-03-02T10:48:10.394Z,7.00
2023-03-02T10:50:38.081Z,6.70
2023-03-02T10:53:16.407Z,6.80
2023-03-02T10:55:52.351Z,6.70
2023-03-02T10:58:22.518Z,6.80
2023-03-02T11:01:01.086Z,6.80
2023-03-02T11:03:29.367Z,6.80
2023-03-02T11:05:58.114Z,7.20
2023-03-02T11:08:28.246Z,7.30
2023-03-02T11:10:59.857Z,7.60
2023-03-02T11:13:45.849Z,7.70
2023-03-02T11:16:18.651Z,8.10
2023-03-02T11:19:00.402Z,7.90
2023-03-02T11:21:54.195Z,7.80
2023-03-02T11:24:40.864Z,7.70
2023-03-02T11:27:20.190Z,7.80
2023-03-02T11:30:08.719Z,8.00
2023-03-02T11:32:53.454Z,8.00
2023-03-02T11:35:41.615Z,7.80
2023-03-02T11:38:29.474Z,8.10
2023-03-02T11:41:15.420Z,8.10
2023-03-02T11:43:42.340Z,8.10
2023-03-02T11:46:26.413Z,8.40
2023-03-02T11:48:57.640Z,8.30
2023-03-02T11:51:30.511Z,8.60
2023-03-02T11:54:02.908Z,8.70
2023-03-02T11:56:32.373Z,8.30
2023-03-02T11:59:07.344Z,8.60
2023-03-02T12:01:36.280Z,8.40
2023-03-02T12:04:23.491Z,8.50
2023-03-02T12:06:50.335Z,9.00
2023-03-02T12:09:23.312Z,8.90
2023-03-02T12:12:17.104Z,8.90
2023-03-02T12:14:44.059Z,9.10
2023-03-02T12:17:25.663Z,9.30
2023-03-02T12:20:06.633Z,9.40
2023-03-02T12:22:34.504Z,9.20
2023-03-02T12:25:06.982Z,9.10
2023-03-02T12:27:38.642Z,9.20
2023-03-02T12:30:23.441Z,9.30
2023-03-02T12:33:10.666Z,9.30
2023-03-02T12:35:38.957Z,9.00
2023-03-02T12:38:31.155Z,9.30
2023-03-02T12:41:12.962Z,9.50
2023-03-02T12:44:07.364Z,9.60
2023-03-02T12:46:36.746Z,9.60
2023-03-02T12:49:27.934Z,9.60
2023-03-02T12:52:24.033Z,9.70
2023-03-02T12:55:19.561Z,9.90
2023-03-02T12:57:54.062Z,10.10
2023-03-02T13:00:24.385Z,9.90
2023-03-02T13:02:53.953Z,9.90
2023-03-02T13:05:25.566Z,9.80
2023-03-02T13:07:59.734Z,10.00
2023-03-02T13:10:40.552Z,9.90
2023-03-02T13:13:21.847Z,10.10
2023-03-02T13:16:00.743Z,10.00
2023-03-02T13:18:36.409Z,10.40
2023-03-02T13:21:04.631Z,10.30
2023-03-02T13:23:33.568Z,10.40
2023-03-02T13:26:05.582Z,10.30
2023-03-02T13:28:37.785Z,10.30
2023-03-02T13:31:21.004Z,10.50
2023-03-02T13:33:50.516Z,10.50
2023-03-02T13:36:21.638Z,10.40
2023-03-02T13:38:51.276Z,10.40
2023-03-02T13:41:32.351Z,10.30
2023-03-02T13:44:10.971Z,10.50
2023-03-02T13:46:39.844Z,10.20
2023-03-02T13:49:11.835Z,10.30
2023-03-02T13:51:46.809Z,10.50
2023-03-02T13:54:25.541Z,10.70
2023-03-02T13:56:53.908Z,10.60
2023-03-02T13:59:21.818Z,10.60
2023-03-02T14:01:48.963Z,10.60
2023-03-02T14:04:24.212Z,10.60
2023-03-02T14:06:52.132Z,10.60
2023-03-02T14:09:19.064Z,10.80
2023-03-02T14:11:49.953Z,10.50
2023-03-02T14:14:19.888Z,10.60
2023-03-02T14:16:46.929Z,10.60
2023-03-02T14:19:16.342Z,10.50
2023-03-02T14:21:43.479Z,10.60
2023-03-02T14:24:10.709Z,10.50
2023-03-02T14:26:47.440Z,10.70
2023-03-02T14:29:27.298Z,10.70
2023-03-02T14:31:55.176Z,10.90
2023-03-02T14:34:22.367Z,11.00
2023-03-02T14:36:52.914Z,10.70
2023-03-02T14:39:30.151Z,10.60
2023-03-02T14:41:57.268Z,10.70
2023-03-02T14:44:24.373Z,10.50
2023-03-02T14:46:51.687Z,10.40
2023-03-02T14:49:18.988Z,10.50
2023-03-02T14:52:00.878Z,10.50
2023-03-02T14:54:36.095Z,10.60
2023-03-02T14:57:06.260Z,10.60
2023-03-02T14:59:33.180Z,10.50
2023-03-02T15:02:08.223Z,10.60
2023-03-02T15:04:42.655Z,10.60
2023-03-02T15:07:15.941Z,10.60
2023-03-02T15:09:45.939Z,10.60
2023-03-02T15:12:12.932Z,10.60
2023-03-02T15:14:40.161Z,10.40
2023-03-02T15:17:07.322Z,10.50
2023-03-02T15:19:34.219Z,10.50
2023-03-02T15:22:04.225Z,10.40
2023-03-02T15:24:33.261Z,10.20
2023-03-02T15:27:00.749Z,10.30
2023-03-02T15:29:27.626Z,10.20
2023-03-02T15:31:54.741Z,10.10
2023-03-02T15:34:21.613Z,10.20
2023-03-02T15:36:48.514Z,10.20
2023-03-02T15:39:16.788Z,10.20
2023-03-02T15:41:44.367Z,10.30
2023-03-02T15:44:23.013Z,10.30
2023-03-02T15:46:51.813Z,10.30
2023-03-02T15:49:22.826Z,10.30
2023-03-02T15:51:52.031Z,10.40
2023-03-02T15:54:19.297Z,10.40
2023-03-02T15:56:49.609Z,10.40
2023-03-02T15:59:16.617Z,10.40
2023-03-02T16:01:43.638Z,10.30
2023-03-02T16:04:10.484Z,10.20
2023-03-02T16:06:38.705Z,10.20
2023-03-02T16:09:05.508Z,10.10
2023-03-02T16:11:32.370Z,10.00
2023-03-02T16:13:59.431Z,10.00
2023-03-02T16:16:26.480Z,9.90
2023-03-02T16:18:55.019Z,9.80
2023-03-02T16:21:23.114Z,9.80
2023-03-02T16:23:52.568Z,9.80
2023-03-02T16:26:21.626Z,9.80
2023-03-02T16:28:48.925Z,9.70
2023-03-02T16:31:18.721Z,9.70
2023-03-02T16:33:46.576Z,9.60
2023-03-02T16:36:14.743Z,9.60
2023-03-02T16:38:42.418Z,9.50
2023-03-02T16:41:19.087Z,9.50
2023-03-02T16:43:48.690Z,9.50
2023-03-02T16:46:16.942Z,9.50
2023-03-02T16:48:44.923Z,9.50
2023-03-02T16:51:12.349Z,9.40
2023-03-02T16:53:40.841Z,9.40
2023-03-02T16:56:08.511Z,9.30
2023-03-02T16:58:38.271Z,9.30
2023-03-02T17:01:06.762Z,9.20
2023-03-02T17:03:34.856Z,9.20
2023-03-02T17:06:01.938Z,9.10
2023-03-02T17:08:28.962Z,9.00
2023-03-02T17:10:55.854Z,8.90
2023-03-02T17:13:22.811Z,8.90
2023-03-02T17:15:49.707Z,8.90
2023-03-02T17:18:17.321Z,8.80
2023-03-02T17:20:44.202Z,8.80
2023-03-02T17:23:14.237Z,8.70
2023-03-02T17:25:41.132Z,8.70
2023-03-02T17:28:08.095Z,8.70
2023-03-02T17:30:34.982Z,8.60
2023-03-02T17:33:01.796Z,8.60
2023-03-02T17:35:28.620Z,8.60
2023-03-02T17:37:55.536Z,8.50
2023-03-02T17:40:22.937Z,8.40
2023-03-02T17:42:49.850Z,8.40
2023-03-02T17:45:19.973Z,8.40
2023-03-02T17:47:48.496Z,8.30
2023-03-02T17:50:15.618Z,8.20
2023-03-02T17:52:43.209Z,8.20
2023-03-02T17:55:11.184Z,8.20
2023-03-02T17:57:38.495Z,8.10
2023-03-02T18:00:08.206Z,8.10
2023-03-02T18:02:35.253Z,8.00
2023-03-02T18:05:02.524Z,8.00
2023-03-02T18:07:29.362Z,7.90
2023-03-02T18:09:56.214Z,7.90
2023-03-02T18:12:23.066Z,7.80
2023-03-02T18:14:49.896Z,7.80
2023-03-02T18:17:16.929Z,7.60
2023-03-02T18:19:43.834Z,7.50
2023-03-02T18:22:11.048Z,7.40
2023-03-02T18:24:37.955Z,7.20
2023-03-02T18:27:04.916Z,7.10
2023-03-02T18:29:32.783Z,7.10
2023-03-02T18:32:00.386Z,7.10
2023-03-02T18:34:27.374Z,7.10
2023-03-02T18:36:54.268Z,6.90
2023-03-02T18:39:21.224Z,6.80
2023-03-02T18:41:48.609Z,6.80
2023-03-02T18:44:15.571Z,6.80
2023-03-02T18:46:42.621Z,6.70
2023-03-02T18:49:09.505Z,6.60
2023-03-02T18:51:36.338Z,6.60
2023-03-02T18:54:03.336Z,6.50
2023-03-02T18:56:30.170Z,6.50
2023-03-02T18:58:57.083Z,6.60
2023-03-02T19:01:23.977Z,6.50
2023-03-02T19:03:51.014Z,6.40
2023-03-02T19:06:17.973Z,6.30
2023-03-02T19:08:44.938Z,6.20
2023-03-02T19:11:12.073Z,6.20
2023-03-02T19:13:38.933Z,6.20
2023-03-02T19:16:06.620Z,6.10
2023-03-02T19:18:34.303Z,6.10
2023-03-02T19:21:01.447Z,6.10
2023-03-02T19:23:28.533Z,6.00
2023-03-02T19:25:55.358Z,6.00
2023-03-02T19:28:22.234Z,6.00
2023-03-02T19:30:50.198Z,5.90
2023-03-02T19:33:17.435Z,5.90
2023-03-02T19:35:44.675Z,5.80
2023-03-02T19:38:12.682Z,5.80
2023-03-02T19:40:39.709Z,5.80
2023-03-02T19:43:06.683Z,5.70
2023-03-02T19:45:35.016Z,5.70
2023-03-02T19:48:03.411Z,5.70
2023-03-02T19:50:30.662Z,5.70
2023-03-02T19:52:58.588Z,5.70
2023-03-02T19:55:26.402Z,5.60
2023-03-02T19:57:59.980Z,5.60
2023-03-02T20:00:29.264Z,5.50
2023-03-02T20:02:56.608Z,5.50
2023-03-02T20:05:23.651Z,5.50
2023-03-02T20:07:50.489Z,5.50
2023-03-02T20:10:44.937Z,5.40
2023-03-02T20:13:11.940Z,5.40
2023-03-02T20:15:42.500Z,5.30
2023-03-02T20:18:12.948Z,5.30
2023-03-02T20:20:40.486Z,5.30
2023-03-02T20:23:07.959Z,5.20
2023-03-02T20:25:36.485Z,5.20
2023-03-02T20:28:05.813Z,5.20
2023-03-02T20:30:35.284Z,5.20
2023-03-02T20:33:04.443Z,5.20
2023-03-02T20:35:33.224Z,5.10
2023-03-02T20:38:02.546Z,5.10
2023-03-02T20:40:29.737Z,5.10
2023-03-02T20:42:56.943Z,5.10
2023-03-02T20:45:23.901Z,5.10
2023-03-02T20:47:50.792Z,5.10
2023-03-02T20:50:20.625Z,5.00
2023-03-02T20:52:47.476Z,5.00
2023-03-02T20:55:14.837Z,5.00
2023-03-02T20:57:41.742Z,5.00
2023-03-02T21:00:14.066Z,4.90
2023-03-02T21:02:41.139Z,4.80
2023-03-02T21:05:08.316Z,4.80
2023-03-02T21:07:35.851Z,4.80
2023-03-02T21:10:06.472Z,4.80
2023-03-02T21:12:34.078Z,4.80
2023-03-02T21:15:02.196Z,4.70
2023-03-02T21:17:30.801Z,4.70
2023-03-02T21:19:58.515Z,4.70
2023-03-02T21:22:25.795Z,4.70
2023-03-02T21:24:56.090Z,4.70
2023-03-02T21:27:22.871Z,4.70
2023-03-02T21:29:49.792Z,4.60
2023-03-02T21:32:16.853Z,4.50
2023-03-02T21:34:44.881Z,4.50
2023-03-02T21:37:11.703Z,4.50
2023-03-02T21:39:38.634Z,4.50
2023-03-02T21:42:05.631Z,4.50
2023-03-02T21:44:32.459Z,4.40
2023-03-02T21:46:59.535Z,4.40
2023-03-02T21:49:26.381Z,4.40
2023-03-02T21:51:53.335Z,4.40
2023-03-02T21:54:20.187Z,4.30
2023-03-02T21:56:46.983Z,4.30
2023-03-02T21:59:13.953Z,4.30
2023-03-02T22:01:41.186Z,4.30
2023-03-02T22:04:08.246Z,4.30
2023-03-02T22:06:35.908Z,4.20
2023-03-02T22:09:04.128Z,4.20
2023-03-02T22:11:36.997Z,4.20
2023-03-02T22:14:15.525Z,4.20
2023-03-02T22:16:46.355Z,4.20
2023-03-02T22:19:31.055Z,4.10
2023-03-02T22:22:00.395Z,4.10
2023-03-02T22:24:32.594Z,4.10
2023-03-02T22:27:18.799Z,4.10
2023-03-02T22:29:47.062Z,4.10
2023-03-02T22:32:15.320Z,4.10
2023-03-02T22:34:44.200Z,4.00
2023-03-02T22:37:37.458Z,3.90
2023-03-02T22:40:16.348Z,3.90
2023-03-02T22:42:43.687Z,3.90
2023-03-02T22:45:21.690Z,3.90
2023-03-02T22:47:51.632Z,3.90
2023-03-02T22:50:27.124Z,3.90
2023-03-02T22:52:55.696Z,3.80
2023-03-02T22:55:43.023Z,3.80
2023-03-02T22:58:27.876Z,3.80
2023-03-02T23:00:55.606Z,3.80
2023-03-02T23:03:25.051Z,3.80
2023-03-02T23:05:53.092Z,3.70
2023-03-02T23:08:25.715Z,3.70
2023-03-02T23:10:55.223Z,3.70
2023-03-02T23:13:26.933Z,3.60
2023-03-02T23:15:54.746Z,3.60
2023-03-02T23:18:25.205Z,3.60
2023-03-02T23:20:52.990Z,3.60
2023-03-02T23:23:21.902Z,3.60
2023-03-02T23:25:49.104Z,3.60
2023-03-02T23:28:16.512Z,3.50
2023-03-02T23:30:43.590Z,3.60
2023-03-02T23:33:10.604Z,3.50
2023-03-02T23:35:37.474Z,3.50
2023-03-02T23:38:04.384Z,3.50
2023-03-02T23:40:31.343Z,3.50
2023-03-02T23:42:58.312Z,3.40
2023-03-02T23:45:26.470Z,3.40
2023-03-02T23:47:53.434Z,3.40
2023-03-02T23:50:20.412Z,3.40
2023-03-02T23:52:47.270Z,3.40
2023-03-02T23:55:14.115Z,3.30
2023-03-02T23:57:40.974Z,3.30
